KLAN/LAN METAR and TAF weather

Enter ICAO airport designator
Station Type Date Time Source
KLAN METAR 2020/06/02 17:53 UTC NOAA

KLAN 021753Z 25011KT 10SM CLR 28/18 A2985 RMK AO2 SLP102 T02830183 10283 20183 56012


Station Type Date Time Source
KLAN Decoded METAR 2020/06/02 17:53 UTC NOAA

CAPITAL CITY AIRPORT, MI, United States (KLAN) 42-47N 084-35W 264M
Jun 02, 2020 - 01:53 PM EDT / 2020.06.02 1753 UTC
Wind: from the WSW (250 degrees) at 13 MPH (11 KT):0
Visibility: 10 mile(s):0
Sky conditions: clear
Temperature: 82.9 F (28.3 C)
Dew Point: 64.9 F (18.3 C)
Relative Humidity: 54%
Pressure (altimeter): 29.85 in. Hg (1010 hPa)
Pressure tendency: 0.04 inches (1.2 hPa) lower than three hours ago
ob: KLAN 021753Z 25011KT 10SM CLR 28/18 A2985 RMK AO2 SLP102 T02830183 10283 20183 56012
cycle: 18

Station Type Date Time Source
KLAN TAF 2020/06/02 18:42 UTC NOAA

TAF KLAN 021740Z 0218/0318 22012G18KT P6SM SKC
FM030900 26010G20KT P6SM VCTS BKN040CB
FM031000 25009KT P6SM VCSH BKN060

Example: see airport list